Time;durP1;ratioP1;P1;durP2;ratioP2;P2;SDS_P1;SDS_P2;PMS_P1;PMS_P2;Temp;Humidity;BMP_temperature;BMP_pressure;BME280_temperature;BME280_humidity;BME280_pressure;Samples;Min_cycle;Max_cycle;Signal;HPM_P1;HPM_P2
2024/02/23 00:01:28;;;;;;;0.30;0.30;;;10.90;99.90;;;;;;4424514;32;20387;-75
2024/02/23 00:03:55;;;;;;;0.20;0.20;;;10.90;99.90;;;;;;4424223;32;20097;-76
2024/02/23 00:06:20;;;;;;;0.30;0.30;;;10.90;99.90;;;;;;4422900;32;20131;-76
2024/02/23 00:08:46;;;;;;;0.30;0.30;;;10.90;99.90;;;;;;4424430;32;20069;-75
2024/02/23 00:11:11;;;;;;;0.35;0.35;;;10.90;99.90;;;;;;4423387;32;20098;-76
2024/02/23 00:13:37;;;;;;;2.55;0.60;;;11.00;99.90;;;;;;4423444;32;20097;-73
2024/02/23 00:16:03;;;;;;;0.30;0.30;;;11.00;99.90;;;;;;4423755;32;20509;-77
2024/02/23 00:18:28;;;;;;;11.18;0.65;;;11.00;99.90;;;;;;4423120;32;20111;-73
2024/02/23 00:20:54;;;;;;;0.30;0.30;;;11.00;99.90;;;;;;4423579;32;20125;-74
2024/02/23 00:23:19;;;;;;;0.32;0.32;;;11.00;99.90;;;;;;4422074;32;20060;-72
2024/02/23 00:25:45;;;;;;;0.30;0.30;;;11.00;99.90;;;;;;4423461;32;20077;-75
2024/02/23 00:28:11;;;;;;;0.30;0.30;;;11.00;99.90;;;;;;4425206;32;20576;-76
2024/02/23 00:30:37;;;;;;;0.40;0.40;;;11.10;99.90;;;;;;4422634;32;20122;-83
2024/02/23 00:33:03;;;;;;;0.30;0.30;;;11.10;99.90;;;;;;4424046;32;20073;-74
2024/02/23 00:35:29;;;;;;;0.50;0.50;;;11.00;99.90;;;;;;4424217;32;20065;-75
2024/02/23 00:37:54;;;;;;;0.35;0.35;;;11.00;99.90;;;;;;4424440;32;20066;-74
2024/02/23 00:40:20;;;;;;;0.50;0.50;;;11.00;99.90;;;;;;4425620;32;20447;-75
2024/02/23 00:42:46;;;;;;;0.30;0.30;;;11.00;99.90;;;;;;4422230;32;20061;-76
2024/02/23 00:45:12;;;;;;;0.37;0.37;;;10.90;99.90;;;;;;4420970;32;20119;-75
2024/02/23 00:47:37;;;;;;;0.37;0.37;;;10.90;99.90;;;;;;4424873;32;20088;-76
2024/02/23 00:50:03;;;;;;;0.28;0.28;;;11.00;99.90;;;;;;4423523;32;20062;-76
2024/02/23 00:52:30;;;;;;;0.30;0.30;;;11.00;99.90;;;;;;4423934;32;20124;-76
2024/02/23 00:54:55;;;;;;;0.52;0.52;;;11.00;99.90;;;;;;4421569;32;20470;-78
2024/02/23 00:57:27;;;;;;;0.30;0.30;;;11.00;99.90;;;;;;4425259;32;20065;-74
2024/02/23 00:59:52;;;;;;;0.30;0.30;;;11.00;99.90;;;;;;4409698;32;20077;-75
2024/02/23 01:02:18;;;;;;;0.30;0.30;;;11.00;99.90;;;;;;4422320;32;20509;-75
2024/02/23 01:04:43;;;;;;;0.45;0.45;;;11.00;99.90;;;;;;4423097;32;20057;-75
2024/02/23 01:07:09;;;;;;;0.30;0.30;;;11.00;99.90;;;;;;4421502;32;20057;-76
2024/02/23 01:09:35;;;;;;;0.25;0.25;;;11.10;99.90;;;;;;4424627;32;20534;-74
2024/02/23 01:12:00;;;;;;;0.30;0.30;;;11.10;99.90;;;;;;4420839;32;20137;-74
2024/02/23 01:14:26;;;;;;;0.50;0.50;;;11.10;99.90;;;;;;4421365;32;20128;-75
2024/02/23 01:16:51;;;;;;;0.50;0.50;;;11.20;99.90;;;;;;4424595;32;20077;-74
2024/02/23 01:19:18;;;;;;;0.20;0.20;;;11.20;99.90;;;;;;4422761;32;20474;-76
2024/02/23 01:21:43;;;;;;;0.30;0.30;;;11.20;99.90;;;;;;4422788;32;20126;-74
2024/02/23 01:24:09;;;;;;;0.40;0.40;;;11.20;99.90;;;;;;4421061;32;20084;-76
2024/02/23 01:26:34;;;;;;;0.30;0.30;;;11.20;99.90;;;;;;4420425;32;20131;-73
2024/02/23 01:29:00;;;;;;;0.40;0.40;;;11.30;99.90;;;;;;4421580;32;20073;-74
2024/02/23 01:31:25;;;;;;;0.35;0.35;;;11.30;99.90;;;;;;4422605;32;20085;-76
2024/02/23 01:33:51;;;;;;;0.30;0.30;;;11.40;99.90;;;;;;4422492;32;20159;-75
2024/02/23 01:36:17;;;;;;;0.50;0.50;;;11.40;99.90;;;;;;4423133;32;20069;-76
2024/02/23 01:38:44;;;;;;;0.30;0.30;;;11.40;99.90;;;;;;4423832;32;20419;-75
2024/02/23 01:41:11;;;;;;;0.30;0.30;;;11.40;99.90;;;;;;4423371;32;20061;-77
2024/02/23 01:43:37;;;;;;;0.40;0.40;;;11.40;99.90;;;;;;4422334;32;20072;-76
2024/02/23 01:46:04;;;;;;;0.30;0.30;;;11.40;99.90;;;;;;4421129;32;20098;-77
2024/02/23 01:48:30;;;;;;;0.32;0.32;;;11.50;99.90;;;;;;4423846;32;20086;-76
2024/02/23 01:50:56;;;;;;;0.68;0.68;;;11.50;99.90;;;;;;4424753;32;20403;-77
2024/02/23 01:53:22;;;;;;;0.30;0.30;;;11.50;99.90;;;;;;4423161;32;20065;-77
2024/02/23 01:55:49;;;;;;;0.57;0.57;;;11.40;99.90;;;;;;4420776;32;20073;-78
2024/02/23 01:58:15;;;;;;;0.30;0.30;;;11.50;99.90;;;;;;4423778;32;20070;-77
2024/02/23 02:00:40;;;;;;;0.30;0.30;;;11.60;99.90;;;;;;4422166;32;20070;-75
2024/02/23 02:03:06;;;;;;;0.37;0.37;;;11.60;99.90;;;;;;4423178;32;20065;-75
2024/02/23 02:05:31;;;;;;;0.30;0.30;;;11.60;99.90;;;;;;4422291;32;20077;-76
2024/02/23 02:07:58;;;;;;;0.35;0.35;;;11.60;99.90;;;;;;4422350;32;20073;-76
2024/02/23 02:10:24;;;;;;;0.40;0.40;;;11.50;99.90;;;;;;4420969;32;20089;-76
2024/02/23 02:12:50;;;;;;;0.30;0.30;;;11.50;99.90;;;;;;4419178;32;20065;-76
2024/02/23 02:15:16;;;;;;;1.75;0.75;;;11.40;99.90;;;;;;4420979;32;20085;-75
2024/02/23 02:17:42;;;;;;;0.40;0.40;;;11.30;99.90;;;;;;4422228;32;20124;-76
2024/02/23 02:20:11;;;;;;;0.50;0.50;;;11.30;99.90;;;;;;4421799;32;20472;-77
2024/02/23 02:22:37;;;;;;;0.28;0.28;;;11.20;99.90;;;;;;4420261;32;20066;-76
2024/02/23 02:25:03;;;;;;;0.30;0.30;;;11.10;99.90;;;;;;4420619;32;20130;-76
2024/02/23 02:27:28;;;;;;;0.40;0.40;;;11.00;99.90;;;;;;4421785;32;20062;-76
2024/02/23 02:29:54;;;;;;;0.40;0.40;;;11.00;99.90;;;;;;4421518;32;20080;-76
2024/02/23 02:32:19;;;;;;;0.30;0.30;;;10.90;99.90;;;;;;4422418;32;20457;-76
2024/02/23 02:34:45;;;;;;;0.30;0.30;;;10.90;99.90;;;;;;4421137;32;20077;-76
2024/02/23 02:37:10;;;;;;;0.30;0.30;;;10.80;99.90;;;;;;4421977;32;20085;-76
2024/02/23 02:39:36;;;;;;;0.30;0.30;;;10.80;99.90;;;;;;4421822;32;20077;-76
2024/02/23 02:42:01;;;;;;;0.40;0.40;;;10.80;99.90;;;;;;4417158;32;20073;-77
2024/02/23 02:44:30;;;;;;;0.30;0.30;;;10.70;99.90;;;;;;4421917;32;20179;-77
2024/02/23 02:46:56;;;;;;;0.30;0.30;;;10.60;99.90;;;;;;4423894;32;20082;-77
2024/02/23 02:49:22;;;;;;;0.32;0.32;;;10.60;99.90;;;;;;4424503;32;20383;-77
2024/02/23 02:51:47;;;;;;;0.30;0.30;;;10.60;99.90;;;;;;4423352;32;20073;-83
2024/02/23 02:54:13;;;;;;;0.40;0.40;;;10.60;99.90;;;;;;4427584;32;20065;-80
2024/02/23 02:56:47;;;;;;;0.20;0.20;;;10.50;99.90;;;;;;4425624;32;20057;-80
2024/02/23 02:59:13;;;;;;;0.30;0.30;;;10.50;99.90;;;;;;4426796;32;20082;-81
2024/02/23 03:01:39;;;;;;;0.30;0.30;;;10.50;99.90;;;;;;4425575;32;20135;-81
2024/02/23 03:04:04;;;;;;;0.30;0.30;;;10.40;99.90;;;;;;4426817;32;20121;-82
2024/02/23 03:06:30;;;;;;;0.30;0.30;;;10.40;99.90;;;;;;4429560;32;21909;-80
2024/02/23 03:08:56;;;;;;;0.30;0.30;;;10.40;99.90;;;;;;4427335;32;20080;-82
2024/02/23 03:11:21;;;;;;;0.37;0.37;;;10.40;99.90;;;;;;4429488;32;20077;-81
2024/02/23 03:13:47;;;;;;;0.30;0.30;;;10.40;99.90;;;;;;4427467;32;20147;-81
2024/02/23 03:16:23;;;;;;;0.30;0.30;;;10.30;99.90;;;;;;4428683;32;20760;-82
2024/02/23 03:18:48;;;;;;;0.30;0.30;;;10.30;99.90;;;;;;4426817;32;20081;-82
2024/02/23 03:21:15;;;;;;;0.40;0.40;;;10.30;99.90;;;;;;4427310;32;20196;-82
2024/02/23 03:23:40;;;;;;;0.50;0.50;;;10.20;99.90;;;;;;4425486;32;20144;-80
2024/02/23 03:26:07;;;;;;;0.30;0.30;;;10.20;99.90;;;;;;4426886;32;20081;-79
2024/02/23 03:28:34;;;;;;;0.28;0.28;;;10.20;99.90;;;;;;4428524;32;20069;-82
2024/02/23 03:31:00;;;;;;;0.45;0.45;;;10.20;99.90;;;;;;4425124;32;20077;-81
2024/02/23 03:33:26;;;;;;;0.37;0.37;;;10.20;99.90;;;;;;4424542;32;20069;-84
2024/02/23 03:35:52;;;;;;;0.50;0.50;;;10.20;99.90;;;;;;4428621;32;20112;-82
2024/02/23 03:38:17;;;;;;;0.30;0.30;;;10.20;99.90;;;;;;4431425;32;20089;-80
2024/02/23 03:40:43;;;;;;;0.30;0.30;;;10.20;99.90;;;;;;4428292;32;21181;-79
2024/02/23 03:43:08;;;;;;;0.30;0.30;;;10.20;99.90;;;;;;4423894;32;20078;-82
2024/02/23 03:45:34;;;;;;;0.30;0.30;;;10.10;99.90;;;;;;4426738;32;20137;-82
2024/02/23 03:48:01;;;;;;;0.40;0.40;;;10.10;99.90;;;;;;4423855;32;20120;-78
2024/02/23 03:50:26;;;;;;;0.30;0.30;;;10.10;99.90;;;;;;4427508;32;20089;-78
2024/02/23 03:52:52;;;;;;;0.57;0.57;;;10.10;99.90;;;;;;4424754;32;20459;-78
2024/02/23 03:55:17;;;;;;;0.30;0.30;;;10.00;99.90;;;;;;4425114;32;20078;-78
2024/02/23 03:57:43;;;;;;;0.35;0.35;;;10.00;99.90;;;;;;4424476;32;20072;-78
2024/02/23 04:02:35;;;;;;;0.40;0.40;;;10.00;99.90;;;;;;4424721;32;20083;-78
2024/02/23 04:05:01;;;;;;;0.30;0.30;;;10.00;99.90;;;;;;4424322;32;20066;-78
2024/02/23 04:07:26;;;;;;;0.52;0.52;;;9.90;99.90;;;;;;4426594;32;20090;-78
2024/02/23 04:09:54;;;;;;;0.40;0.40;;;9.90;99.90;;;;;;4425752;32;20437;-79
2024/02/23 04:12:20;;;;;;;0.30;0.30;;;9.90;99.90;;;;;;4425259;32;20102;-78
2024/02/23 04:14:46;;;;;;;2.30;1.15;;;9.90;99.90;;;;;;4424181;32;20105;-78
2024/02/23 04:17:12;;;;;;;0.85;0.85;;;9.80;99.90;;;;;;4424952;32;20085;-78
2024/02/23 04:19:38;;;;;;;0.30;0.30;;;9.80;99.90;;;;;;4425288;32;20521;-78
2024/02/23 04:22:06;;;;;;;0.20;0.20;;;9.80;99.90;;;;;;4424698;32;20138;-77
2024/02/23 04:24:31;;;;;;;0.30;0.30;;;9.80;99.90;;;;;;4423276;32;20093;-78
2024/02/23 04:26:56;;;;;;;0.22;0.22;;;9.80;99.90;;;;;;4427989;32;20117;-78
2024/02/23 04:29:22;;;;;;;0.30;0.30;;;9.80;99.90;;;;;;4428092;32;20065;-78
2024/02/23 04:31:47;;;;;;;0.37;0.37;;;9.70;99.90;;;;;;4427609;32;20061;-78
2024/02/23 04:34:16;;;;;;;20.83;0.95;;;9.70;99.90;;;;;;4424771;32;20081;-78
2024/02/23 04:36:42;;;;;;;0.30;0.30;;;9.60;99.90;;;;;;4426039;32;20544;-78
2024/02/23 04:39:07;;;;;;;0.30;0.30;;;9.60;99.90;;;;;;4426752;32;20471;-78
2024/02/23 04:41:33;;;;;;;0.30;0.30;;;9.60;99.90;;;;;;4424597;32;20080;-77
2024/02/23 04:44:00;;;;;;;0.37;0.37;;;9.60;99.90;;;;;;4424644;32;21099;-77
2024/02/23 04:46:26;;;;;;;0.40;0.40;;;9.60;99.90;;;;;;4425424;32;20057;-77
2024/02/23 04:48:52;;;;;;;0.35;0.35;;;9.60;99.90;;;;;;4423651;32;20782;-77
2024/02/23 04:51:18;;;;;;;0.40;0.40;;;9.50;99.90;;;;;;4424799;32;20208;-78
2024/02/23 04:53:44;;;;;;;0.40;0.40;;;9.50;99.90;;;;;;4422728;32;20073;-77
2024/02/23 04:56:09;;;;;;;0.30;0.30;;;9.40;99.90;;;;;;4422627;32;20057;-78
2024/02/23 04:58:35;;;;;;;0.30;0.30;;;9.40;99.90;;;;;;4424263;32;20513;-77
2024/02/23 05:01:00;;;;;;;0.40;0.40;;;9.40;99.90;;;;;;4422776;32;20077;-78
2024/02/23 05:03:26;;;;;;;0.30;0.30;;;9.40;99.90;;;;;;4424249;32;20061;-77
2024/02/23 05:05:53;;;;;;;0.35;0.35;;;9.40;99.90;;;;;;4423722;32;20105;-78
2024/02/23 05:08:24;;;;;;;0.40;0.40;;;9.40;99.90;;;;;;4424924;32;20545;-78
2024/02/23 05:10:50;;;;;;;0.40;0.40;;;9.30;99.90;;;;;;4424954;32;20081;-78
2024/02/23 05:13:16;;;;;;;0.30;0.30;;;9.30;99.90;;;;;;4423173;32;20086;-75
2024/02/23 05:15:42;;;;;;;0.30;0.30;;;9.30;99.90;;;;;;4422287;32;21144;-76
2024/02/23 05:18:07;;;;;;;0.30;0.30;;;9.30;99.90;;;;;;4425327;32;20122;-75
2024/02/23 05:20:33;;;;;;;0.45;0.45;;;9.20;99.90;;;;;;4423751;32;20533;-76
2024/02/23 05:22:58;;;;;;;0.30;0.30;;;9.20;99.90;;;;;;4419189;32;20090;-75
2024/02/23 05:25:25;;;;;;;0.30;0.30;;;9.10;99.90;;;;;;4420375;32;20090;-74
2024/02/23 05:27:51;;;;;;;0.30;0.30;;;9.00;99.90;;;;;;4425043;32;20465;-74
2024/02/23 05:30:16;;;;;;;0.30;0.30;;;8.90;99.90;;;;;;4424547;32;20081;-75
2024/02/23 05:32:43;;;;;;;0.28;0.28;;;8.90;99.90;;;;;;4426948;32;20077;-80
2024/02/23 05:35:09;;;;;;;0.35;0.35;;;8.80;99.90;;;;;;4425500;32;20127;-81
2024/02/23 05:37:35;;;;;;;0.30;0.30;;;8.70;99.90;;;;;;4422851;32;20518;-80
2024/02/23 05:40:04;;;;;;;0.40;0.40;;;8.70;99.90;;;;;;4423729;32;20093;-82
2024/02/23 05:42:29;;;;;;;0.30;0.30;;;8.60;99.90;;;;;;4423107;32;20098;-80
2024/02/23 05:44:55;;;;;;;0.32;0.32;;;8.60;99.90;;;;;;4419732;32;20065;-81
2024/02/23 05:47:21;;;;;;;0.22;0.22;;;8.50;99.90;;;;;;4422965;32;20068;-81
2024/02/23 05:49:47;;;;;;;0.30;0.30;;;8.50;99.90;;;;;;4424523;32;20076;-82
2024/02/23 05:52:12;;;;;;;0.30;0.30;;;8.50;99.90;;;;;;4417704;32;20081;-81
2024/02/23 05:54:39;;;;;;;0.20;0.20;;;8.40;99.90;;;;;;4421000;32;20081;-79
2024/02/23 05:57:04;;;;;;;0.30;0.30;;;8.40;99.90;;;;;;4425299;32;20073;-82
2024/02/23 05:59:30;;;;;;;0.40;0.40;;;8.40;99.90;;;;;;4424105;32;20950;-82
2024/02/23 06:01:57;;;;;;;0.30;0.30;;;8.40;99.90;;;;;;4422361;32;20050;-81
2024/02/23 06:04:23;;;;;;;0.30;0.30;;;8.30;99.90;;;;;;4422220;32;20121;-82
2024/02/23 06:06:49;;;;;;;0.30;0.30;;;8.40;99.90;;;;;;4409221;32;20569;-81
2024/02/23 06:09:14;;;;;;;0.28;0.28;;;8.30;99.90;;;;;;4422558;32;20088;-81
2024/02/23 06:11:41;;;;;;;0.30;0.30;;;8.30;99.90;;;;;;4422098;32;20073;-79
2024/02/23 06:14:07;;;;;;;0.40;0.40;;;8.30;99.90;;;;;;4404658;32;20082;-80
2024/02/23 06:16:33;;;;;;;0.30;0.30;;;8.30;99.90;;;;;;4420024;32;20090;-78
2024/02/23 06:18:59;;;;;;;0.30;0.30;;;8.30;99.90;;;;;;4421439;32;20180;-79
2024/02/23 06:21:24;;;;;;;0.30;0.30;;;8.20;99.90;;;;;;4411019;32;20428;-79
2024/02/23 06:23:50;;;;;;;0.30;0.30;;;8.20;99.90;;;;;;4418312;32;20219;-76
2024/02/23 06:26:15;;;;;;;0.30;0.30;;;8.20;99.90;;;;;;4405953;32;20199;-77
2024/02/23 06:28:41;;;;;;;0.60;0.60;;;8.20;99.90;;;;;;4415446;32;20077;-76
2024/02/23 06:31:08;;;;;;;0.30;0.30;;;8.10;99.90;;;;;;4418893;32;20079;-77
2024/02/23 06:33:35;;;;;;;0.30;0.30;;;8.10;99.90;;;;;;4414637;32;20089;-79
2024/02/23 06:36:00;;;;;;;0.30;0.30;;;8.10;99.90;;;;;;4418162;32;20129;-77
2024/02/23 06:38:27;;;;;;;0.30;0.30;;;8.10;99.90;;;;;;4412433;32;20112;-77
2024/02/23 06:40:52;;;;;;;0.30;0.30;;;8.10;99.90;;;;;;4415042;32;20089;-76
2024/02/23 06:43:18;;;;;;;0.30;0.30;;;8.10;99.90;;;;;;4417170;32;20107;-78
2024/02/23 06:45:45;;;;;;;0.32;0.32;;;8.10;99.90;;;;;;4414813;32;20266;-78
2024/02/23 06:48:13;;;;;;;0.30;0.30;;;8.10;99.90;;;;;;4415257;32;20112;-77
2024/02/23 06:50:39;;;;;;;0.30;0.30;;;8.10;99.90;;;;;;4412930;32;20132;-79
2024/02/23 06:53:06;;;;;;;0.50;0.50;;;8.10;99.90;;;;;;4410709;32;20109;-78
2024/02/23 06:55:34;;;;;;;0.40;0.40;;;8.20;99.90;;;;;;4402011;32;20081;-79
2024/02/23 06:58:00;;;;;;;0.85;0.57;;;8.20;99.90;;;;;;4401945;32;20291;-77
2024/02/23 07:00:26;;;;;;;0.30;0.30;;;8.30;99.90;;;;;;4397816;32;21234;-77
2024/02/23 07:02:51;;;;;;;0.30;0.30;;;8.30;99.90;;;;;;4399680;32;20081;-78
2024/02/23 07:05:18;;;;;;;0.30;0.30;;;8.30;99.90;;;;;;4396891;32;20098;-78
2024/02/23 07:07:44;;;;;;;0.40;0.40;;;8.30;99.90;;;;;;4398727;32;20097;-78
2024/02/23 07:10:11;;;;;;;0.85;0.85;;;8.30;99.90;;;;;;4404908;32;20119;-79
2024/02/23 07:12:37;;;;;;;0.30;0.30;;;8.40;99.90;;;;;;4405399;32;20711;-78
2024/02/23 07:15:03;;;;;;;0.30;0.30;;;8.40;99.90;;;;;;4403445;32;20176;-78
2024/02/23 07:17:29;;;;;;;0.68;0.68;;;8.30;99.90;;;;;;4403098;32;21625;-78
2024/02/23 07:20:01;;;;;;;0.40;0.40;;;8.30;99.90;;;;;;4398597;32;20065;-78
2024/02/23 07:22:26;;;;;;;0.30;0.30;;;8.30;99.90;;;;;;4405001;32;20289;-78
2024/02/23 07:24:52;;;;;;;0.30;0.30;;;8.30;99.90;;;;;;4401053;32;20093;-78
2024/02/23 07:27:18;;;;;;;0.30;0.30;;;8.20;99.90;;;;;;4394318;32;20591;-78
2024/02/23 07:29:44;;;;;;;0.30;0.30;;;8.20;99.90;;;;;;4393593;32;20882;-79
2024/02/23 07:32:10;;;;;;;0.30;0.30;;;8.20;99.90;;;;;;4399845;32;20509;-78
2024/02/23 07:34:35;;;;;;;0.30;0.30;;;8.10;99.90;;;;;;4400138;32;20110;-78
2024/02/23 07:37:01;;;;;;;0.30;0.30;;;8.20;99.90;;;;;;4398452;32;20482;-79
2024/02/23 07:39:27;;;;;;;0.40;0.40;;;8.20;99.90;;;;;;4401990;32;20066;-78
2024/02/23 07:41:52;;;;;;;0.30;0.30;;;8.20;99.90;;;;;;4406626;32;20992;-78
2024/02/23 07:44:18;;;;;;;0.30;0.30;;;8.30;99.90;;;;;;4401212;32;20085;-81
2024/02/23 07:46:43;;;;;;;0.30;0.30;;;8.30;99.90;;;;;;4403149;32;20294;-79
2024/02/23 07:49:09;;;;;;;0.30;0.30;;;8.20;99.90;;;;;;4404989;32;20105;-79
2024/02/23 07:51:35;;;;;;;0.30;0.30;;;8.30;99.90;;;;;;4403848;32;21037;-81
2024/02/23 07:54:01;;;;;;;0.40;0.40;;;8.30;99.90;;;;;;4395924;32;20097;-79
2024/02/23 07:56:27;;;;;;;0.40;0.40;;;8.40;99.90;;;;;;4399985;32;20182;-79
2024/02/23 07:58:53;;;;;;;4.87;1.73;;;8.40;99.90;;;;;;4397301;32;20081;-81
2024/02/23 08:01:19;;;;;;;0.43;0.43;;;8.40;99.90;;;;;;4406154;32;20163;-79
2024/02/23 08:03:44;;;;;;;7.57;1.52;;;8.50;99.90;;;;;;4408171;32;20427;-78
2024/02/23 08:06:10;;;;;;;3.25;2.15;;;8.70;99.90;;;;;;4404179;32;20101;-79
2024/02/23 08:08:35;;;;;;;0.37;0.37;;;8.70;99.90;;;;;;4404251;32;20097;-79
2024/02/23 08:11:02;;;;;;;1.00;0.77;;;8.80;99.90;;;;;;4407568;32;20885;-80
2024/02/23 08:13:28;;;;;;;0.57;0.57;;;8.90;99.90;;;;;;4402296;32;20073;-79
2024/02/23 08:15:53;;;;;;;0.30;0.30;;;9.00;99.90;;;;;;4405119;32;20089;-79
2024/02/23 08:18:19;;;;;;;0.30;0.30;;;9.10;99.90;;;;;;4405584;32;20549;-81
2024/02/23 08:20:44;;;;;;;0.40;0.40;;;9.10;99.90;;;;;;4408337;32;20102;-80
2024/02/23 08:23:10;;;;;;;0.35;0.35;;;9.20;99.90;;;;;;4401696;32;20068;-79
2024/02/23 08:25:36;;;;;;;0.30;0.30;;;9.20;99.90;;;;;;4401522;32;20089;-78
2024/02/23 08:28:02;;;;;;;0.30;0.30;;;9.00;99.90;;;;;;4402346;32;20159;-78
2024/02/23 08:30:28;;;;;;;0.20;0.20;;;8.90;99.90;;;;;;4395772;32;20600;-80
2024/02/23 08:32:54;;;;;;;0.35;0.35;;;9.00;99.90;;;;;;4395951;32;20086;-80
2024/02/23 08:35:20;;;;;;;0.28;0.28;;;8.90;99.90;;;;;;4396277;32;20105;-80
2024/02/23 08:37:45;;;;;;;0.50;0.50;;;8.90;99.90;;;;;;4394639;32;20070;-79
2024/02/23 08:40:11;;;;;;;0.30;0.30;;;9.00;99.90;;;;;;4397330;32;20758;-79
2024/02/23 08:42:37;;;;;;;0.35;0.35;;;8.90;99.90;;;;;;4396206;32;20120;-80
2024/02/23 08:45:04;;;;;;;0.30;0.30;;;9.00;99.90;;;;;;4396088;32;20094;-79
2024/02/23 08:47:33;;;;;;;0.30;0.30;;;9.00;99.90;;;;;;4394659;32;20089;-79
2024/02/23 08:49:59;;;;;;;0.20;0.20;;;9.00;99.90;;;;;;4394803;32;22072;-80
2024/02/23 08:52:25;;;;;;;0.30;0.30;;;9.10;99.90;;;;;;4391894;32;20485;-79
2024/02/23 08:54:51;;;;;;;0.30;0.30;;;9.10;99.90;;;;;;4384945;32;20163;-79
2024/02/23 08:57:20;;;;;;;0.30;0.30;;;9.10;99.90;;;;;;4387111;32;20077;-79
2024/02/23 08:59:47;;;;;;;0.20;0.20;;;9.00;99.90;;;;;;4388293;32;20097;-76
2024/02/23 09:02:12;;;;;;;7.25;2.78;;;9.10;99.90;;;;;;4388371;32;21272;-80
2024/02/23 09:04:38;;;;;;;0.20;0.20;;;9.00;99.90;;;;;;4398043;32;20085;-77
2024/02/23 09:07:03;;;;;;;0.30;0.30;;;9.10;99.90;;;;;;4396595;32;20444;-77
2024/02/23 09:09:29;;;;;;;0.47;0.47;;;9.20;99.90;;;;;;4391629;32;20144;-79
2024/02/23 09:11:55;;;;;;;0.30;0.30;;;9.20;99.90;;;;;;4392733;32;20125;-79
2024/02/23 09:14:21;;;;;;;0.32;0.32;;;9.40;99.90;;;;;;4402586;32;20090;-78
2024/02/23 09:16:50;;;;;;;3.67;0.50;;;9.40;99.90;;;;;;4401810;32;20825;-78
2024/02/23 09:19:16;;;;;;;4.90;0.77;;;9.40;99.90;;;;;;4396541;32;20081;-79
2024/02/23 09:21:41;;;;;;;0.32;0.32;;;9.50;99.90;;;;;;4397337;32;20077;-78
2024/02/23 09:24:07;;;;;;;1.48;0.50;;;9.60;99.90;;;;;;4394088;32;20112;-76
2024/02/23 09:26:33;;;;;;;0.40;0.40;;;9.60;99.90;;;;;;4398604;32;20082;-79
2024/02/23 09:28:58;;;;;;;0.40;0.40;;;9.70;99.90;;;;;;4403247;32;20809;-80
2024/02/23 09:31:24;;;;;;;0.30;0.30;;;9.80;99.90;;;;;;4403483;32;20196;-79
2024/02/23 09:33:51;;;;;;;0.37;0.37;;;9.90;99.90;;;;;;4393639;32;20113;-79
2024/02/23 09:36:17;;;;;;;0.37;0.37;;;10.00;99.90;;;;;;4399449;32;20612;-77
2024/02/23 09:38:45;;;;;;;0.30;0.30;;;10.10;99.90;;;;;;4393762;32;20416;-77
2024/02/23 09:41:21;;;;;;;0.30;0.30;;;9.90;99.90;;;;;;4391642;32;20077;-78
2024/02/23 09:43:49;;;;;;;0.37;0.37;;;9.80;99.90;;;;;;4395728;32;20080;-80
2024/02/23 09:46:15;;;;;;;4.47;0.80;;;9.80;99.90;;;;;;4399076;32;20082;-78
2024/02/23 09:48:43;;;;;;;0.22;0.22;;;9.60;99.90;;;;;;4395700;32;20463;-79
2024/02/23 09:51:11;;;;;;;0.30;0.30;;;9.70;99.90;;;;;;4403474;32;20732;-79
2024/02/23 09:53:38;;;;;;;2.17;0.73;;;9.80;99.90;;;;;;4395433;32;20309;-76
2024/02/23 09:56:05;;;;;;;0.30;0.30;;;9.90;99.90;;;;;;4396563;32;20655;-78
2024/02/23 09:58:35;;;;;;;0.47;0.47;;;10.00;99.90;;;;;;4398792;32;20363;-77
2024/02/23 10:01:03;;;;;;;0.35;0.35;;;10.10;99.90;;;;;;4398870;32;20199;-78
2024/02/23 10:03:30;;;;;;;0.40;0.40;;;10.30;99.90;;;;;;4404832;32;20082;-78
2024/02/23 10:05:56;;;;;;;0.30;0.30;;;10.40;99.90;;;;;;4411076;32;20636;-77
2024/02/23 10:08:23;;;;;;;0.30;0.30;;;10.40;99.90;;;;;;4402832;32;20942;-78
2024/02/23 10:10:50;;;;;;;0.30;0.30;;;10.20;99.90;;;;;;4396774;32;20566;-77
2024/02/23 10:13:24;;;;;;;0.30;0.30;;;10.20;99.90;;;;;;4398895;32;20089;-77
2024/02/23 10:15:54;;;;;;;0.32;0.32;;;10.10;99.90;;;;;;4399068;32;20441;-77
2024/02/23 10:18:19;;;;;;;0.30;0.30;;;10.00;99.90;;;;;;4397100;32;20376;-77
2024/02/23 10:20:46;;;;;;;0.30;0.30;;;10.00;99.90;;;;;;4387266;32;21819;-77
2024/02/23 10:23:12;;;;;;;0.32;0.32;;;9.80;99.90;;;;;;4389634;32;20255;-78
2024/02/23 10:25:38;;;;;;;0.40;0.40;;;9.90;99.90;;;;;;4381080;32;20096;-79
2024/02/23 10:28:07;;;;;;;0.30;0.30;;;10.00;99.90;;;;;;4397085;32;20200;-78
2024/02/23 10:30:33;;;;;;;0.40;0.40;;;10.00;99.90;;;;;;4395877;32;20093;-77
2024/02/23 10:32:59;;;;;;;0.40;0.40;;;10.20;99.90;;;;;;4400183;32;20092;-78
2024/02/23 10:35:26;;;;;;;0.30;0.30;;;10.20;99.90;;;;;;4398851;32;20574;-77
2024/02/23 10:37:54;;;;;;;0.30;0.30;;;10.30;99.90;;;;;;4400881;32;20132;-78
2024/02/23 10:40:23;;;;;;;0.40;0.40;;;10.30;99.90;;;;;;4404291;32;20081;-77
2024/02/23 10:42:53;;;;;;;0.40;0.40;;;10.40;99.90;;;;;;4403213;32;21075;-78
2024/02/23 10:45:20;;;;;;;;;;;10.40;99.90;;;;;;4397818;32;20215;-78
2024/02/23 10:47:48;;;;;;;0.30;0.30;;;10.30;99.90;;;;;;4407798;32;20063;-79
2024/02/23 10:50:14;;;;;;;0.40;0.40;;;10.40;99.90;;;;;;4403564;32;20454;-79
2024/02/23 10:52:42;;;;;;;0.55;0.55;;;10.50;99.90;;;;;;4396629;32;20739;-78
2024/02/23 10:55:09;;;;;;;2.15;0.50;;;10.70;99.90;;;;;;4399771;32;20104;-79
2024/02/23 10:57:35;;;;;;;0.30;0.30;;;10.60;99.90;;;;;;4397412;32;20148;-80
2024/02/23 11:00:06;;;;;;;0.30;0.30;;;10.70;99.90;;;;;;4405019;32;20135;-77
2024/02/23 11:02:35;;;;;;;0.40;0.40;;;10.70;99.90;;;;;;4395138;32;20553;-76
2024/02/23 11:05:04;;;;;;;0.30;0.30;;;10.70;99.90;;;;;;4396572;32;20136;-77
2024/02/23 11:07:30;;;;;;;0.45;0.45;;;10.60;99.90;;;;;;4399042;32;20113;-77
2024/02/23 11:09:59;;;;;;;0.30;0.30;;;10.30;99.90;;;;;;4400601;32;20331;-77
2024/02/23 11:12:29;;;;;;;0.40;0.40;;;10.50;99.90;;;;;;4400715;32;20069;-75
2024/02/23 11:15:00;;;;;;;2.25;1.12;;;10.50;99.90;;;;;;4402268;32;20465;-76
2024/02/23 11:17:28;;;;;;;0.40;0.40;;;10.60;99.90;;;;;;4408384;32;20093;-75
2024/02/23 11:19:55;;;;;;;0.30;0.30;;;10.60;99.90;;;;;;4404982;32;20785;-76
2024/02/23 11:22:32;;;;;;;0.68;0.68;;;10.60;99.90;;;;;;4402804;32;20438;-76
2024/02/23 11:25:03;;;;;;;4.10;1.58;;;10.80;99.90;;;;;;4413461;32;20754;-77
2024/02/23 11:27:31;;;;;;;0.50;0.50;;;10.70;99.90;;;;;;4410823;32;20084;-74
2024/02/23 11:30:06;;;;;;;1.25;0.70;;;10.80;99.90;;;;;;4417965;32;20073;-75
2024/02/23 11:32:40;;;;;;;0.57;0.57;;;10.80;99.90;;;;;;4420610;32;20090;-73
2024/02/23 11:35:08;;;;;;;0.30;0.30;;;10.70;99.90;;;;;;4415679;32;20562;-74
2024/02/23 11:37:56;;;;;;;0.57;0.52;;;10.70;99.90;;;;;;4421306;32;20157;-76
2024/02/23 11:40:22;;;;;;;0.50;0.50;;;11.00;99.90;;;;;;4412075;32;20600;-76
2024/02/23 11:42:48;;;;;;;0.30;0.30;;;10.90;99.90;;;;;;4408850;32;20086;-77
2024/02/23 11:45:13;;;;;;;0.30;0.30;;;10.80;99.90;;;;;;4415885;32;20086;-77
2024/02/23 11:47:39;;;;;;;0.30;0.30;;;10.80;99.90;;;;;;4420119;32;20073;-78
2024/02/23 11:50:10;;;;;;;0.30;0.30;;;10.60;99.90;;;;;;4421898;32;20429;-74
2024/02/23 11:52:37;;;;;;;0.30;0.30;;;10.70;99.90;;;;;;4419610;32;92736;-74
2024/02/23 11:55:04;;;;;;;0.40;0.40;;;10.70;99.90;;;;;;4421406;32;20203;-75
2024/02/23 11:57:31;;;;;;;0.40;0.40;;;10.80;99.90;;;;;;4420179;32;20078;-75
2024/02/23 11:59:58;;;;;;;0.37;0.37;;;11.00;99.90;;;;;;4421905;32;20139;-75
2024/02/23 12:02:24;;;;;;;0.30;0.30;;;11.20;99.90;;;;;;4423336;32;20061;-75
2024/02/23 12:04:50;;;;;;;0.40;0.40;;;11.30;99.90;;;;;;4423192;32;20097;-74
2024/02/23 12:07:16;;;;;;;0.30;0.30;;;11.30;99.90;;;;;;4425525;32;20102;-74
2024/02/23 12:09:43;;;;;;;0.30;0.30;;;11.40;99.90;;;;;;4423282;32;20529;-76
2024/02/23 12:12:09;;;;;;;0.40;0.40;;;11.30;99.90;;;;;;4423333;32;20615;-75
2024/02/23 12:14:36;;;;;;;0.30;0.30;;;11.50;99.90;;;;;;4424373;32;20078;-73
2024/02/23 12:17:03;;;;;;;0.40;0.40;;;11.40;99.90;;;;;;4424351;32;20123;-74
2024/02/23 12:19:29;;;;;;;0.40;0.40;;;11.40;99.90;;;;;;4423976;32;20085;-73
2024/02/23 12:22:00;;;;;;;0.30;0.30;;;11.60;99.90;;;;;;4422342;32;20084;-76
2024/02/23 12:24:28;;;;;;;0.30;0.30;;;11.70;99.90;;;;;;4421462;32;20081;-76
2024/02/23 12:26:55;;;;;;;0.30;0.30;;;11.60;99.90;;;;;;4421301;32;20435;-77
2024/02/23 12:29:20;;;;;;;0.30;0.30;;;11.40;99.90;;;;;;4420936;32;20085;-76
2024/02/23 12:31:46;;;;;;;0.37;0.37;;;11.20;99.90;;;;;;4423286;32;20065;-77
2024/02/23 12:34:12;;;;;;;0.40;0.40;;;11.10;99.90;;;;;;4423043;32;21336;-77
2024/02/23 12:36:39;;;;;;;0.30;0.30;;;11.00;99.90;;;;;;4420634;32;20072;-76
2024/02/23 12:39:05;;;;;;;0.30;0.30;;;11.10;99.90;;;;;;4421209;32;20122;-77
2024/02/23 12:41:31;;;;;;;0.30;0.30;;;11.10;99.90;;;;;;4420326;32;20088;-76
2024/02/23 12:43:57;;;;;;;0.43;0.43;;;11.20;99.90;;;;;;4420100;32;20548;-76
2024/02/23 12:46:23;;;;;;;0.30;0.30;;;11.00;99.90;;;;;;4422776;32;20155;-76
2024/02/23 12:48:49;;;;;;;0.32;0.32;;;11.10;99.90;;;;;;4418860;32;20113;-77
2024/02/23 12:51:15;;;;;;;6.50;0.55;;;11.20;99.90;;;;;;4422152;32;20069;-75